Airfield :
LOGIN :

Register | Disclaimer

   EN    FR    IT 

 










Legend :    VFR   Marginal VFR   IFR   Intensive IFR   Very Intensive IFR
Visi :
Ceiling :
>= 8 km
>= 3000ft
5 to 8 km
1000 to 3000 ft
1500m to 5 km
500 to 1000 ft
800 to 1500m
200 to 500 ft
< 800m
< 200 ft
Symbols :   Thunderstorms  Fog  Heavy snow  Heavy precipitations  Wind > 20 kt
SIGMETs :     Misc.  Thunderstorms  Icing  Turbulence  Mountain Waves  Volcanic Ashes







- Airport Elevation : 465 ft
- IATA code : LEJ


EDDP - Leipzig Halle

CURRENT METAR :
  • 300050Z 17006KT CAVOK 21/16 Q1011 NOSIG

EXPIRED METARs :
  • 300020Z 18007KT CAVOK 21/17 Q1011 NOSIG
  • 292350Z 17007KT 150V210 CAVOK 21/16 Q1011 NOSIG
  • 292320Z 16006KT CAVOK 22/16 Q1011 NOSIG
  • 292250Z 16007KT 130V200 CAVOK 22/16 Q1011 NOSIG
  • 292220Z 17006KT CAVOK 22/16 Q1011 NOSIG

TAF TAF EDDP
Valid from the 30 at 00:00 until the 31 at 00:00 UTC


292300Z 3000/3024 18007KT CAVOK
BECMG 3006/3009 25015G25KT
PROB30
TEMPO 3006/3008 -TSRA SCT045CB
PROB30
TEMPO 3014/3018 27020G40KT TSRA BKN030CB
BECMG 3016/3018 28007KT
No reported NOTAMs for that airfield.



MET'MAP, your aeronautical weather chart ! - Copyright ORBIFLY December 2007 - Disclaimer

ORBIFLY MET'MAP TEAM :

Programming & Development : Alexandra Zaïnal
Concept & Development : Baudouin d'Aumeries
Co-Development & Prog : Marc-Olivier Méhu
Technical & hardware support : Manuel Goepfert

Contact : metmap@orbifly.com




SOURCES & CREDITS :

   NOAA